Aviation Digital Data Service (ADDS)

Output produced by METARs form (1306 UTC 30 July 2016)
found at http://aviationweather.gov/adds/metars/
 
KJAX 301120Z 3012/3112 29007KT P6SM FEW040 
     FM301900 13010KT P6SM VCTS SCT050CB 
     FM310200 19006KT P6SM SCT050 BKN150 BKN250 
     FM310500 22003KT P6SM SCT150 SCT250